sensor_id;sensor_type;location;lat;lon;timestamp;P1;durP1;ratioP1;P2;durP2;ratioP2
41685;SDS011;27370;42.764;23.432;2023-06-14T00:01:49;0.70;;;0.43;;
41685;SDS011;27370;42.764;23.432;2023-06-14T00:04:15;1.17;;;1.08;;
41685;SDS011;27370;42.764;23.432;2023-06-14T00:06:46;0.40;;;0.40;;
41685;SDS011;27370;42.764;23.432;2023-06-14T00:09:11;0.75;;;0.75;;
41685;SDS011;27370;42.764;23.432;2023-06-14T00:11:42;0.80;;;0.80;;
41685;SDS011;27370;42.764;23.432;2023-06-14T00:14:08;0.82;;;0.75;;
41685;SDS011;27370;42.764;23.432;2023-06-14T00:16:34;1.42;;;0.50;;
41685;SDS011;27370;42.764;23.432;2023-06-14T00:19:00;0.93;;;0.85;;
41685;SDS011;27370;42.764;23.432;2023-06-14T00:21:29;0.82;;;0.73;;
41685;SDS011;27370;42.764;23.432;2023-06-14T00:23:55;1.02;;;0.90;;
41685;SDS011;27370;42.764;23.432;2023-06-14T00:26:21;1.75;;;0.57;;
41685;SDS011;27370;42.764;23.432;2023-06-14T00:28:46;0.47;;;0.47;;
41685;SDS011;27370;42.764;23.432;2023-06-14T00:31:12;2.67;;;0.65;;
41685;SDS011;27370;42.764;23.432;2023-06-14T00:33:37;0.17;;;0.17;;
41685;SDS011;27370;42.764;23.432;2023-06-14T00:36:04;1.02;;;0.73;;
41685;SDS011;27370;42.764;23.432;2023-06-14T00:38:29;0.65;;;0.65;;
41685;SDS011;27370;42.764;23.432;2023-06-14T00:40:55;0.63;;;0.60;;
41685;SDS011;27370;42.764;23.432;2023-06-14T00:43:20;3.13;;;0.63;;
41685;SDS011;27370;42.764;23.432;2023-06-14T00:45:46;0.52;;;0.52;;
41685;SDS011;27370;42.764;23.432;2023-06-14T00:48:12;1.45;;;1.23;;
41685;SDS011;27370;42.764;23.432;2023-06-14T00:53:11;1.40;;;0.63;;
41685;SDS011;27370;42.764;23.432;2023-06-14T00:55:37;3.58;;;1.42;;
41685;SDS011;27370;42.764;23.432;2023-06-14T00:58:03;1.05;;;0.95;;
41685;SDS011;27370;42.764;23.432;2023-06-14T01:00:28;2.05;;;1.23;;
41685;SDS011;27370;42.764;23.432;2023-06-14T01:02:54;0.75;;;0.65;;
41685;SDS011;27370;42.764;23.432;2023-06-14T01:05:20;5.53;;;1.23;;
41685;SDS011;27370;42.764;23.432;2023-06-14T01:15:32;1.33;;;1.23;;
41685;SDS011;27370;42.764;23.432;2023-06-14T01:17:59;4.20;;;1.23;;
41685;SDS011;27370;42.764;23.432;2023-06-14T01:20:32;1.35;;;0.95;;
41685;SDS011;27370;42.764;23.432;2023-06-14T01:23:03;2.05;;;1.17;;
41685;SDS011;27370;42.764;23.432;2023-06-14T01:25:29;0.75;;;0.75;;
41685;SDS011;27370;42.764;23.432;2023-06-14T01:27:55;1.38;;;0.98;;
41685;SDS011;27370;42.764;23.432;2023-06-14T01:30:25;1.23;;;0.95;;
41685;SDS011;27370;42.764;23.432;2023-06-14T01:32:51;0.55;;;0.52;;
41685;SDS011;27370;42.764;23.432;2023-06-14T01:35:18;1.27;;;1.17;;
41685;SDS011;27370;42.764;23.432;2023-06-14T01:37:44;3.45;;;2.05;;
41685;SDS011;27370;42.764;23.432;2023-06-14T01:40:13;5.13;;;0.40;;
41685;SDS011;27370;42.764;23.432;2023-06-14T01:42:46;6.43;;;1.85;;
41685;SDS011;27370;42.764;23.432;2023-06-14T01:45:13;4.20;;;2.90;;
41685;SDS011;27370;42.764;23.432;2023-06-14T01:47:39;1.25;;;1.00;;
41685;SDS011;27370;42.764;23.432;2023-06-14T01:50:05;2.08;;;1.40;;
41685;SDS011;27370;42.764;23.432;2023-06-14T01:52:31;7.15;;;2.88;;
41685;SDS011;27370;42.764;23.432;2023-06-14T01:54:57;3.10;;;1.75;;
41685;SDS011;27370;42.764;23.432;2023-06-14T01:57:23;2.78;;;1.88;;
41685;SDS011;27370;42.764;23.432;2023-06-14T01:59:51;4.35;;;3.15;;
41685;SDS011;27370;42.764;23.432;2023-06-14T02:02:17;8.63;;;3.17;;
41685;SDS011;27370;42.764;23.432;2023-06-14T02:04:43;4.60;;;3.33;;
41685;SDS011;27370;42.764;23.432;2023-06-14T02:07:09;2.45;;;1.65;;
41685;SDS011;27370;42.764;23.432;2023-06-14T02:09:34;1.33;;;1.20;;
41685;SDS011;27370;42.764;23.432;2023-06-14T02:12:00;3.33;;;1.65;;
41685;SDS011;27370;42.764;23.432;2023-06-14T02:14:26;6.55;;;1.52;;
41685;SDS011;27370;42.764;23.432;2023-06-14T02:16:52;0.60;;;0.60;;
41685;SDS011;27370;42.764;23.432;2023-06-14T02:19:19;3.33;;;1.67;;
41685;SDS011;27370;42.764;23.432;2023-06-14T02:21:46;5.13;;;1.63;;
41685;SDS011;27370;42.764;23.432;2023-06-14T02:24:12;2.10;;;1.40;;
41685;SDS011;27370;42.764;23.432;2023-06-14T02:26:38;2.83;;;1.45;;
41685;SDS011;27370;42.764;23.432;2023-06-14T02:29:04;3.05;;;1.98;;
41685;SDS011;27370;42.764;23.432;2023-06-14T02:31:31;26.80;;;1.30;;
41685;SDS011;27370;42.764;23.432;2023-06-14T02:33:58;1.00;;;0.60;;
41685;SDS011;27370;42.764;23.432;2023-06-14T02:36:23;1.02;;;0.65;;
41685;SDS011;27370;42.764;23.432;2023-06-14T02:38:49;0.98;;;0.65;;
41685;SDS011;27370;42.764;23.432;2023-06-14T02:41:14;1.33;;;1.23;;
41685;SDS011;27370;42.764;23.432;2023-06-14T02:43:40;3.85;;;1.90;;
41685;SDS011;27370;42.764;23.432;2023-06-14T02:46:05;0.93;;;0.55;;
41685;SDS011;27370;42.764;23.432;2023-06-14T02:48:32;0.40;;;0.40;;
41685;SDS011;27370;42.764;23.432;2023-06-14T02:50:57;1.20;;;1.00;;
41685;SDS011;27370;42.764;23.432;2023-06-14T02:53:23;2.10;;;0.77;;
41685;SDS011;27370;42.764;23.432;2023-06-14T02:55:48;0.70;;;0.70;;
41685;SDS011;27370;42.764;23.432;2023-06-14T02:58:14;1.25;;;0.98;;
41685;SDS011;27370;42.764;23.432;2023-06-14T03:00:41;0.73;;;0.70;;
41685;SDS011;27370;42.764;23.432;2023-06-14T03:03:08;1.85;;;1.38;;
41685;SDS011;27370;42.764;23.432;2023-06-14T03:05:44;8.18;;;0.70;;
41685;SDS011;27370;42.764;23.432;2023-06-14T03:08:17;0.50;;;0.50;;
41685;SDS011;27370;42.764;23.432;2023-06-14T03:10:45;0.68;;;0.43;;
41685;SDS011;27370;42.764;23.432;2023-06-14T03:13:12;2.25;;;1.05;;
41685;SDS011;27370;42.764;23.432;2023-06-14T03:15:39;0.47;;;0.47;;
41685;SDS011;27370;42.764;23.432;2023-06-14T03:18:09;0.80;;;0.75;;
41685;SDS011;27370;42.764;23.432;2023-06-14T03:20:36;1.85;;;1.08;;
41685;SDS011;27370;42.764;23.432;2023-06-14T03:23:02;0.30;;;0.30;;
41685;SDS011;27370;42.764;23.432;2023-06-14T03:25:29;1.60;;;0.93;;
41685;SDS011;27370;42.764;23.432;2023-06-14T03:27:55;1.63;;;0.77;;
41685;SDS011;27370;42.764;23.432;2023-06-14T03:30:22;1.08;;;0.77;;
41685;SDS011;27370;42.764;23.432;2023-06-14T03:32:49;12.43;;;2.83;;
41685;SDS011;27370;42.764;23.432;2023-06-14T03:35:18;2.27;;;1.37;;
41685;SDS011;27370;42.764;23.432;2023-06-14T03:37:47;2.92;;;1.23;;
41685;SDS011;27370;42.764;23.432;2023-06-14T03:40:15;2.03;;;1.23;;
41685;SDS011;27370;42.764;23.432;2023-06-14T03:42:48;1.88;;;1.50;;
41685;SDS011;27370;42.764;23.432;2023-06-14T03:45:14;4.38;;;2.58;;
41685;SDS011;27370;42.764;23.432;2023-06-14T03:47:40;2.25;;;1.48;;
41685;SDS011;27370;42.764;23.432;2023-06-14T03:50:06;5.55;;;1.95;;
41685;SDS011;27370;42.764;23.432;2023-06-14T03:52:34;3.35;;;2.20;;
41685;SDS011;27370;42.764;23.432;2023-06-14T03:54:59;0.70;;;0.70;;
41685;SDS011;27370;42.764;23.432;2023-06-14T03:57:26;4.25;;;1.98;;
41685;SDS011;27370;42.764;23.432;2023-06-14T03:59:54;1.13;;;1.00;;
41685;SDS011;27370;42.764;23.432;2023-06-14T04:02:19;2.83;;;2.17;;
41685;SDS011;27370;42.764;23.432;2023-06-14T04:04:45;2.78;;;1.17;;
41685;SDS011;27370;42.764;23.432;2023-06-14T04:07:11;2.53;;;1.98;;
41685;SDS011;27370;42.764;23.432;2023-06-14T04:09:38;1.13;;;0.98;;
41685;SDS011;27370;42.764;23.432;2023-06-14T04:12:04;2.75;;;2.15;;
41685;SDS011;27370;42.764;23.432;2023-06-14T04:14:31;1.15;;;1.10;;
41685;SDS011;27370;42.764;23.432;2023-06-14T04:17:00;0.20;;;0.20;;
41685;SDS011;27370;42.764;23.432;2023-06-14T04:19:26;3.95;;;2.35;;
41685;SDS011;27370;42.764;23.432;2023-06-14T04:21:52;1.85;;;1.20;;
41685;SDS011;27370;42.764;23.432;2023-06-14T04:24:18;5.47;;;1.88;;
41685;SDS011;27370;42.764;23.432;2023-06-14T04:26:46;3.25;;;1.08;;
41685;SDS011;27370;42.764;23.432;2023-06-14T04:29:16;1.17;;;1.00;;
41685;SDS011;27370;42.764;23.432;2023-06-14T04:31:45;1.33;;;1.10;;
41685;SDS011;27370;42.764;23.432;2023-06-14T04:34:12;1.25;;;1.15;;
41685;SDS011;27370;42.764;23.432;2023-06-14T04:36:51;2.13;;;1.92;;
41685;SDS011;27370;42.764;23.432;2023-06-14T04:39:19;17.40;;;2.58;;
41685;SDS011;27370;42.764;23.432;2023-06-14T04:41:48;2.90;;;1.67;;
41685;SDS011;27370;42.764;23.432;2023-06-14T04:44:17;5.43;;;1.45;;
41685;SDS011;27370;42.764;23.432;2023-06-14T04:46:46;3.22;;;1.80;;
41685;SDS011;27370;42.764;23.432;2023-06-14T04:49:19;2.47;;;0.95;;
41685;SDS011;27370;42.764;23.432;2023-06-14T04:51:45;1.90;;;1.60;;
41685;SDS011;27370;42.764;23.432;2023-06-14T04:54:12;1.58;;;1.10;;
41685;SDS011;27370;42.764;23.432;2023-06-14T04:56:42;2.10;;;1.73;;
41685;SDS011;27370;42.764;23.432;2023-06-14T04:59:09;2.70;;;1.63;;
41685;SDS011;27370;42.764;23.432;2023-06-14T05:01:36;2.35;;;1.40;;
41685;SDS011;27370;42.764;23.432;2023-06-14T05:04:03;2.08;;;0.93;;
41685;SDS011;27370;42.764;23.432;2023-06-14T05:06:29;2.47;;;1.67;;
41685;SDS011;27370;42.764;23.432;2023-06-14T05:08:55;3.10;;;1.27;;
41685;SDS011;27370;42.764;23.432;2023-06-14T05:11:22;1.27;;;1.17;;
41685;SDS011;27370;42.764;23.432;2023-06-14T05:13:52;1.85;;;1.25;;
41685;SDS011;27370;42.764;23.432;2023-06-14T05:16:17;1.58;;;1.45;;
41685;SDS011;27370;42.764;23.432;2023-06-14T05:18:44;1.63;;;1.35;;
41685;SDS011;27370;42.764;23.432;2023-06-14T05:21:11;3.42;;;2.42;;
41685;SDS011;27370;42.764;23.432;2023-06-14T05:23:36;1.85;;;1.65;;
41685;SDS011;27370;42.764;23.432;2023-06-14T05:26:02;0.55;;;0.55;;
41685;SDS011;27370;42.764;23.432;2023-06-14T05:28:29;0.95;;;0.88;;
41685;SDS011;27370;42.764;23.432;2023-06-14T05:30:55;1.67;;;1.42;;
41685;SDS011;27370;42.764;23.432;2023-06-14T05:33:21;3.25;;;2.08;;
41685;SDS011;27370;42.764;23.432;2023-06-14T05:35:47;1.33;;;1.23;;
41685;SDS011;27370;42.764;23.432;2023-06-14T05:38:12;1.77;;;1.40;;
41685;SDS011;27370;42.764;23.432;2023-06-14T05:40:38;1.65;;;1.45;;
41685;SDS011;27370;42.764;23.432;2023-06-14T05:43:03;2.97;;;2.22;;
41685;SDS011;27370;42.764;23.432;2023-06-14T05:45:29;3.50;;;1.58;;
41685;SDS011;27370;42.764;23.432;2023-06-14T05:47:54;1.85;;;1.02;;
41685;SDS011;27370;42.764;23.432;2023-06-14T05:50:20;1.85;;;1.38;;
41685;SDS011;27370;42.764;23.432;2023-06-14T05:52:46;1.38;;;1.23;;
41685;SDS011;27370;42.764;23.432;2023-06-14T05:55:12;2.70;;;1.70;;
41685;SDS011;27370;42.764;23.432;2023-06-14T05:57:38;2.35;;;1.23;;
41685;SDS011;27370;42.764;23.432;2023-06-14T06:00:04;4.47;;;2.53;;
41685;SDS011;27370;42.764;23.432;2023-06-14T06:02:37;4.13;;;2.05;;
41685;SDS011;27370;42.764;23.432;2023-06-14T06:05:03;1.35;;;1.25;;
41685;SDS011;27370;42.764;23.432;2023-06-14T06:07:28;1.65;;;1.35;;
41685;SDS011;27370;42.764;23.432;2023-06-14T06:09:54;1.85;;;0.90;;
41685;SDS011;27370;42.764;23.432;2023-06-14T06:12:19;6.90;;;1.33;;
41685;SDS011;27370;42.764;23.432;2023-06-14T06:14:45;2.55;;;1.02;;
41685;SDS011;27370;42.764;23.432;2023-06-14T06:17:10;0.90;;;0.80;;
41685;SDS011;27370;42.764;23.432;2023-06-14T06:19:36;1.02;;;0.93;;
41685;SDS011;27370;42.764;23.432;2023-06-14T06:22:02;1.50;;;1.23;;
41685;SDS011;27370;42.764;23.432;2023-06-14T06:24:30;2.35;;;1.77;;
41685;SDS011;27370;42.764;23.432;2023-06-14T06:26:55;0.70;;;0.70;;
41685;SDS011;27370;42.764;23.432;2023-06-14T06:29:21;1.60;;;0.93;;
41685;SDS011;27370;42.764;23.432;2023-06-14T06:31:46;2.35;;;1.65;;
41685;SDS011;27370;42.764;23.432;2023-06-14T06:34:12;1.60;;;1.13;;
41685;SDS011;27370;42.764;23.432;2023-06-14T06:36:37;5.28;;;2.25;;
41685;SDS011;27370;42.764;23.432;2023-06-14T06:39:02;1.40;;;1.27;;
41685;SDS011;27370;42.764;23.432;2023-06-14T06:41:35;1.02;;;0.82;;
41685;SDS011;27370;42.764;23.432;2023-06-14T06:44:08;4.05;;;2.05;;
41685;SDS011;27370;42.764;23.432;2023-06-14T06:46:37;1.83;;;1.38;;
41685;SDS011;27370;42.764;23.432;2023-06-14T06:49:09;4.05;;;1.30;;
41685;SDS011;27370;42.764;23.432;2023-06-14T06:51:36;2.70;;;1.58;;
41685;SDS011;27370;42.764;23.432;2023-06-14T06:54:02;2.63;;;2.03;;
41685;SDS011;27370;42.764;23.432;2023-06-14T06:56:28;2.28;;;1.17;;
41685;SDS011;27370;42.764;23.432;2023-06-14T06:58:53;1.10;;;0.88;;
41685;SDS011;27370;42.764;23.432;2023-06-14T07:01:19;0.85;;;0.85;;
41685;SDS011;27370;42.764;23.432;2023-06-14T07:03:45;2.30;;;1.23;;
41685;SDS011;27370;42.764;23.432;2023-06-14T07:06:11;1.52;;;1.42;;
41685;SDS011;27370;42.764;23.432;2023-06-14T07:08:37;1.45;;;1.35;;
41685;SDS011;27370;42.764;23.432;2023-06-14T07:11:06;2.33;;;1.55;;
41685;SDS011;27370;42.764;23.432;2023-06-14T07:13:32;4.72;;;1.63;;
41685;SDS011;27370;42.764;23.432;2023-06-14T07:15:58;3.17;;;1.63;;
41685;SDS011;27370;42.764;23.432;2023-06-14T07:18:25;3.63;;;1.27;;
41685;SDS011;27370;42.764;23.432;2023-06-14T07:20:50;3.95;;;1.83;;
41685;SDS011;27370;42.764;23.432;2023-06-14T07:23:17;2.03;;;1.33;;
41685;SDS011;27370;42.764;23.432;2023-06-14T07:25:42;3.50;;;1.20;;
41685;SDS011;27370;42.764;23.432;2023-06-14T07:28:08;2.05;;;1.30;;
41685;SDS011;27370;42.764;23.432;2023-06-14T07:30:33;1.40;;;1.30;;
41685;SDS011;27370;42.764;23.432;2023-06-14T07:33:00;3.70;;;1.73;;
41685;SDS011;27370;42.764;23.432;2023-06-14T07:35:25;0.98;;;0.95;;
41685;SDS011;27370;42.764;23.432;2023-06-14T07:37:51;1.98;;;1.65;;
41685;SDS011;27370;42.764;23.432;2023-06-14T07:40:16;3.72;;;2.03;;
41685;SDS011;27370;42.764;23.432;2023-06-14T07:42:42;1.80;;;1.70;;
41685;SDS011;27370;42.764;23.432;2023-06-14T07:45:07;2.60;;;1.98;;
41685;SDS011;27370;42.764;23.432;2023-06-14T07:47:33;2.17;;;1.67;;
41685;SDS011;27370;42.764;23.432;2023-06-14T07:49:59;1.65;;;1.48;;
41685;SDS011;27370;42.764;23.432;2023-06-14T07:52:24;2.63;;;1.73;;
41685;SDS011;27370;42.764;23.432;2023-06-14T07:54:50;3.60;;;2.00;;
41685;SDS011;27370;42.764;23.432;2023-06-14T07:57:16;1.75;;;1.33;;
41685;SDS011;27370;42.764;23.432;2023-06-14T07:59:41;2.45;;;1.83;;
41685;SDS011;27370;42.764;23.432;2023-06-14T08:02:06;0.73;;;0.70;;
41685;SDS011;27370;42.764;23.432;2023-06-14T08:04:32;1.73;;;1.20;;
41685;SDS011;27370;42.764;23.432;2023-06-14T08:06:59;1.52;;;1.35;;
41685;SDS011;27370;42.764;23.432;2023-06-14T08:09:25;0.73;;;0.73;;
41685;SDS011;27370;42.764;23.432;2023-06-14T08:11:50;2.67;;;1.73;;
41685;SDS011;27370;42.764;23.432;2023-06-14T08:14:16;0.57;;;0.57;;
41685;SDS011;27370;42.764;23.432;2023-06-14T08:16:41;2.95;;;1.90;;
41685;SDS011;27370;42.764;23.432;2023-06-14T08:19:07;0.57;;;0.57;;
41685;SDS011;27370;42.764;23.432;2023-06-14T08:21:32;2.60;;;1.60;;
41685;SDS011;27370;42.764;23.432;2023-06-14T08:23:58;1.88;;;0.82;;
41685;SDS011;27370;42.764;23.432;2023-06-14T08:26:24;4.38;;;1.77;;
41685;SDS011;27370;42.764;23.432;2023-06-14T08:28:54;0.47;;;0.47;;
41685;SDS011;27370;42.764;23.432;2023-06-14T08:31:20;2.13;;;1.60;;
41685;SDS011;27370;42.764;23.432;2023-06-14T08:33:45;3.25;;;1.38;;
41685;SDS011;27370;42.764;23.432;2023-06-14T08:36:11;1.65;;;0.85;;
41685;SDS011;27370;42.764;23.432;2023-06-14T08:38:38;2.38;;;1.65;;
41685;SDS011;27370;42.764;23.432;2023-06-14T08:41:04;2.15;;;1.38;;
41685;SDS011;27370;42.764;23.432;2023-06-14T08:43:34;1.73;;;1.10;;
41685;SDS011;27370;42.764;23.432;2023-06-14T08:46:03;0.32;;;0.32;;
41685;SDS011;27370;42.764;23.432;2023-06-14T08:48:31;2.20;;;0.95;;
41685;SDS011;27370;42.764;23.432;2023-06-14T08:50:59;6.13;;;1.23;;
41685;SDS011;27370;42.764;23.432;2023-06-14T08:53:32;1.73;;;1.50;;
41685;SDS011;27370;42.764;23.432;2023-06-14T08:56:01;2.05;;;1.40;;
41685;SDS011;27370;42.764;23.432;2023-06-14T08:58:30;3.45;;;0.93;;
41685;SDS011;27370;42.764;23.432;2023-06-14T09:01:00;0.60;;;0.60;;
41685;SDS011;27370;42.764;23.432;2023-06-14T09:03:27;1.58;;;1.10;;
41685;SDS011;27370;42.764;23.432;2023-06-14T09:05:59;0.85;;;0.85;;
41685;SDS011;27370;42.764;23.432;2023-06-14T09:08:26;0.30;;;0.30;;
41685;SDS011;27370;42.764;23.432;2023-06-14T09:10:55;0.30;;;0.30;;
41685;SDS011;27370;42.764;23.432;2023-06-14T09:13:22;0.95;;;0.68;;
41685;SDS011;27370;42.764;23.432;2023-06-14T09:15:47;1.02;;;0.90;;
41685;SDS011;27370;42.764;23.432;2023-06-14T09:18:13;0.88;;;0.68;;
41685;SDS011;27370;42.764;23.432;2023-06-14T09:20:38;9.27;;;2.25;;
41685;SDS011;27370;42.764;23.432;2023-06-14T09:23:05;1.27;;;0.85;;
41685;SDS011;27370;42.764;23.432;2023-06-14T09:25:32;1.00;;;0.98;;
41685;SDS011;27370;42.764;23.432;2023-06-14T09:27:58;0.20;;;0.20;;
41685;SDS011;27370;42.764;23.432;2023-06-14T09:30:24;0.82;;;0.77;;
41685;SDS011;27370;42.764;23.432;2023-06-14T09:32:49;0.55;;;0.55;;
41685;SDS011;27370;42.764;23.432;2023-06-14T09:35:17;0.60;;;0.47;;
41685;SDS011;27370;42.764;23.432;2023-06-14T09:37:43;0.82;;;0.77;;
41685;SDS011;27370;42.764;23.432;2023-06-14T09:40:09;0.50;;;0.50;;
41685;SDS011;27370;42.764;23.432;2023-06-14T09:42:35;0.73;;;0.70;;
41685;SDS011;27370;42.764;23.432;2023-06-14T09:45:02;1.65;;;0.52;;
41685;SDS011;27370;42.764;23.432;2023-06-14T09:47:29;0.20;;;0.20;;
41685;SDS011;27370;42.764;23.432;2023-06-14T09:49:54;0.60;;;0.60;;
41685;SDS011;27370;42.764;23.432;2023-06-14T09:52:21;0.43;;;0.43;;
41685;SDS011;27370;42.764;23.432;2023-06-14T09:54:51;1.73;;;1.23;;
41685;SDS011;27370;42.764;23.432;2023-06-14T09:57:22;0.20;;;0.20;;
41685;SDS011;27370;42.764;23.432;2023-06-14T09:59:48;0.30;;;0.30;;
41685;SDS011;27370;42.764;23.432;2023-06-14T10:10:20;0.20;;;0.20;;
41685;SDS011;27370;42.764;23.432;2023-06-14T10:12:46;1.05;;;0.73;;
41685;SDS011;27370;42.764;23.432;2023-06-14T10:16:15;1.63;;;0.52;;
41685;SDS011;27370;42.764;23.432;2023-06-14T10:18:46;5.45;;;1.90;;
41685;SDS011;27370;42.764;23.432;2023-06-14T10:21:25;0.82;;;0.77;;
41685;SDS011;27370;42.764;23.432;2023-06-14T10:23:56;0.60;;;0.60;;
41685;SDS011;27370;42.764;23.432;2023-06-14T10:26:26;1.17;;;0.28;;
41685;SDS011;27370;42.764;23.432;2023-06-14T10:29:07;3.65;;;0.95;;
41685;SDS011;27370;42.764;23.432;2023-06-14T10:31:40;1.08;;;0.82;;
41685;SDS011;27370;42.764;23.432;2023-06-14T10:34:06;0.20;;;0.20;;
41685;SDS011;27370;42.764;23.432;2023-06-14T10:36:31;1.85;;;0.57;;
41685;SDS011;27370;42.764;23.432;2023-06-14T10:39:00;0.20;;;0.20;;
41685;SDS011;27370;42.764;23.432;2023-06-14T10:41:34;11.82;;;7.20;;
41685;SDS011;27370;42.764;23.432;2023-06-14T10:46:39;11.63;;;7.93;;
41685;SDS011;27370;42.764;23.432;2023-06-14T10:49:05;21.35;;;7.78;;
41685;SDS011;27370;42.764;23.432;2023-06-14T10:51:44;10.75;;;6.50;;
41685;SDS011;27370;42.764;23.432;2023-06-14T10:54:15;12.30;;;7.13;;
41685;SDS011;27370;42.764;23.432;2023-06-14T10:56:51;11.13;;;6.70;;
41685;SDS011;27370;42.764;23.432;2023-06-14T10:59:18;11.65;;;7.70;;
41685;SDS011;27370;42.764;23.432;2023-06-14T11:02:11;12.02;;;6.53;;
41685;SDS011;27370;42.764;23.432;2023-06-14T11:04:48;9.98;;;6.32;;
41685;SDS011;27370;42.764;23.432;2023-06-14T11:07:42;11.07;;;6.20;;
41685;SDS011;27370;42.764;23.432;2023-06-14T11:10:20;9.52;;;6.57;;
41685;SDS011;27370;42.764;23.432;2023-06-14T11:12:58;9.23;;;5.90;;
41685;SDS011;27370;42.764;23.432;2023-06-14T11:15:28;14.85;;;7.30;;
41685;SDS011;27370;42.764;23.432;2023-06-14T11:17:54;10.45;;;5.85;;
41685;SDS011;27370;42.764;23.432;2023-06-14T11:20:24;9.85;;;6.20;;
41685;SDS011;27370;42.764;23.432;2023-06-14T11:22:51;10.75;;;6.40;;
41685;SDS011;27370;42.764;23.432;2023-06-14T11:25:17;10.43;;;5.63;;
41685;SDS011;27370;42.764;23.432;2023-06-14T11:27:43;11.40;;;6.35;;
41685;SDS011;27370;42.764;23.432;2023-06-14T11:30:09;9.88;;;6.40;;
41685;SDS011;27370;42.764;23.432;2023-06-14T11:32:36;9.40;;;5.85;;
41685;SDS011;27370;42.764;23.432;2023-06-14T11:35:02;9.18;;;5.85;;
41685;SDS011;27370;42.764;23.432;2023-06-14T11:37:29;9.95;;;5.78;;
41685;SDS011;27370;42.764;23.432;2023-06-14T11:39:56;9.48;;;5.72;;
41685;SDS011;27370;42.764;23.432;2023-06-14T11:42:22;10.48;;;6.05;;
41685;SDS011;27370;42.764;23.432;2023-06-14T11:44:49;8.52;;;5.43;;
41685;SDS011;27370;42.764;23.432;2023-06-14T11:47:15;9.55;;;5.97;;
41685;SDS011;27370;42.764;23.432;2023-06-14T11:49:41;11.85;;;6.22;;
41685;SDS011;27370;42.764;23.432;2023-06-14T11:52:07;9.80;;;6.00;;
41685;SDS011;27370;42.764;23.432;2023-06-14T11:54:33;10.70;;;6.10;;
41685;SDS011;27370;42.764;23.432;2023-06-14T11:57:01;10.77;;;6.60;;
41685;SDS011;27370;42.764;23.432;2023-06-14T11:59:28;10.05;;;6.85;;
41685;SDS011;27370;42.764;23.432;2023-06-14T12:01:54;11.23;;;6.85;;
41685;SDS011;27370;42.764;23.432;2023-06-14T12:04:29;11.00;;;7.03;;
41685;SDS011;27370;42.764;23.432;2023-06-14T12:06:55;11.43;;;6.60;;
41685;SDS011;27370;42.764;23.432;2023-06-14T12:09:22;10.10;;;6.90;;
41685;SDS011;27370;42.764;23.432;2023-06-14T12:11:51;9.95;;;6.35;;
41685;SDS011;27370;42.764;23.432;2023-06-14T12:14:28;11.00;;;6.35;;
41685;SDS011;27370;42.764;23.432;2023-06-14T12:17:03;9.77;;;6.25;;
41685;SDS011;27370;42.764;23.432;2023-06-14T12:19:31;9.70;;;6.32;;
41685;SDS011;27370;42.764;23.432;2023-06-14T12:21:59;8.80;;;5.82;;
41685;SDS011;27370;42.764;23.432;2023-06-14T12:24:28;9.93;;;6.03;;
41685;SDS011;27370;42.764;23.432;2023-06-14T12:26:57;11.52;;;6.72;;
41685;SDS011;27370;42.764;23.432;2023-06-14T12:29:24;10.07;;;6.00;;
41685;SDS011;27370;42.764;23.432;2023-06-14T12:31:50;11.05;;;6.43;;
41685;SDS011;27370;42.764;23.432;2023-06-14T12:34:16;10.80;;;6.47;;
41685;SDS011;27370;42.764;23.432;2023-06-14T12:36:41;9.32;;;5.68;;
41685;SDS011;27370;42.764;23.432;2023-06-14T12:39:10;9.65;;;5.82;;
41685;SDS011;27370;42.764;23.432;2023-06-14T12:41:36;10.07;;;6.30;;
41685;SDS011;27370;42.764;23.432;2023-06-14T12:44:21;11.88;;;5.97;;
41685;SDS011;27370;42.764;23.432;2023-06-14T12:46:48;9.85;;;6.18;;
41685;SDS011;27370;42.764;23.432;2023-06-14T12:51:42;10.18;;;6.53;;
41685;SDS011;27370;42.764;23.432;2023-06-14T12:54:07;9.23;;;5.68;;
41685;SDS011;27370;42.764;23.432;2023-06-14T12:56:33;9.60;;;5.18;;
41685;SDS011;27370;42.764;23.432;2023-06-14T12:58:58;9.07;;;4.95;;
41685;SDS011;27370;42.764;23.432;2023-06-14T13:01:24;9.35;;;5.40;;
41685;SDS011;27370;42.764;23.432;2023-06-14T13:03:50;10.05;;;5.65;;
41685;SDS011;27370;42.764;23.432;2023-06-14T13:06:17;9.75;;;5.28;;
41685;SDS011;27370;42.764;23.432;2023-06-14T13:08:42;9.45;;;5.68;;
41685;SDS011;27370;42.764;23.432;2023-06-14T13:11:08;9.10;;;5.03;;
41685;SDS011;27370;42.764;23.432;2023-06-14T13:13:34;9.85;;;5.45;;
41685;SDS011;27370;42.764;23.432;2023-06-14T13:15:59;9.65;;;5.47;;
41685;SDS011;27370;42.764;23.432;2023-06-14T13:18:25;10.07;;;5.45;;
41685;SDS011;27370;42.764;23.432;2023-06-14T13:20:51;9.10;;;5.30;;
41685;SDS011;27370;42.764;23.432;2023-06-14T13:23:16;9.77;;;5.30;;
41685;SDS011;27370;42.764;23.432;2023-06-14T13:25:42;9.93;;;5.68;;
41685;SDS011;27370;42.764;23.432;2023-06-14T13:28:08;10.82;;;5.80;;
41685;SDS011;27370;42.764;23.432;2023-06-14T13:30:34;8.77;;;5.13;;
41685;SDS011;27370;42.764;23.432;2023-06-14T13:33:00;9.07;;;5.45;;
41685;SDS011;27370;42.764;23.432;2023-06-14T13:35:26;8.90;;;5.50;;
41685;SDS011;27370;42.764;23.432;2023-06-14T13:37:52;10.13;;;6.20;;
41685;SDS011;27370;42.764;23.432;2023-06-14T13:40:17;8.60;;;5.15;;
41685;SDS011;27370;42.764;23.432;2023-06-14T13:42:43;9.70;;;5.38;;
41685;SDS011;27370;42.764;23.432;2023-06-14T13:45:09;10.55;;;5.90;;
41685;SDS011;27370;42.764;23.432;2023-06-14T13:47:36;19.98;;;6.97;;
41685;SDS011;27370;42.764;23.432;2023-06-14T13:50:02;21.65;;;8.98;;
41685;SDS011;27370;42.764;23.432;2023-06-14T13:52:28;26.40;;;10.55;;
41685;SDS011;27370;42.764;23.432;2023-06-14T13:54:54;35.97;;;11.55;;
41685;SDS011;27370;42.764;23.432;2023-06-14T13:57:19;28.20;;;11.57;;
41685;SDS011;27370;42.764;23.432;2023-06-14T13:59:45;21.67;;;13.27;;
41685;SDS011;27370;42.764;23.432;2023-06-14T14:02:11;21.65;;;13.63;;
41685;SDS011;27370;42.764;23.432;2023-06-14T14:04:37;35.25;;;18.35;;
41685;SDS011;27370;42.764;23.432;2023-06-14T14:07:04;1.88;;;1.17;;
41685;SDS011;27370;42.764;23.432;2023-06-14T14:09:31;3.28;;;1.35;;
41685;SDS011;27370;42.764;23.432;2023-06-14T14:11:57;1.67;;;0.70;;
41685;SDS011;27370;42.764;23.432;2023-06-14T14:14:24;4.60;;;2.40;;
41685;SDS011;27370;42.764;23.432;2023-06-14T14:16:50;1.60;;;0.85;;
41685;SDS011;27370;42.764;23.432;2023-06-14T14:19:20;1.20;;;1.10;;
41685;SDS011;27370;42.764;23.432;2023-06-14T14:21:47;1.00;;;0.52;;
41685;SDS011;27370;42.764;23.432;2023-06-14T14:24:12;1.67;;;1.05;;
41685;SDS011;27370;42.764;23.432;2023-06-14T14:26:38;1.23;;;0.63;;
41685;SDS011;27370;42.764;23.432;2023-06-14T14:29:03;1.35;;;0.65;;
41685;SDS011;27370;42.764;23.432;2023-06-14T14:31:29;0.50;;;0.50;;
41685;SDS011;27370;42.764;23.432;2023-06-14T14:33:55;0.55;;;0.28;;
41685;SDS011;27370;42.764;23.432;2023-06-14T14:36:20;0.45;;;0.38;;
41685;SDS011;27370;42.764;23.432;2023-06-14T14:38:46;0.50;;;0.50;;
41685;SDS011;27370;42.764;23.432;2023-06-14T14:41:12;0.52;;;0.38;;
41685;SDS011;27370;42.764;23.432;2023-06-14T14:43:38;1.65;;;0.80;;
41685;SDS011;27370;42.764;23.432;2023-06-14T14:46:04;0.00;;;0.00;;
41685;SDS011;27370;42.764;23.432;2023-06-14T14:48:29;2.28;;;1.05;;
41685;SDS011;27370;42.764;23.432;2023-06-14T14:50:55;1.17;;;1.08;;
41685;SDS011;27370;42.764;23.432;2023-06-14T14:53:20;0.45;;;0.45;;
41685;SDS011;27370;42.764;23.432;2023-06-14T14:55:46;0.98;;;0.73;;
41685;SDS011;27370;42.764;23.432;2023-06-14T14:58:12;1.05;;;0.85;;